sensor_id;sensor_type;location;lat;lon;timestamp;pressure;altitude;pressure_sealevel;temperature;humidity
4767;BME280;2397;53.576;9.746;2024-02-23T00:01:05;97812.97;;;9.21;71.31
4767;BME280;2397;53.576;9.746;2024-02-23T00:03:33;97838.50;;;9.14;73.17
4767;BME280;2397;53.576;9.746;2024-02-23T00:06:01;97842.59;;;9.03;75.06
4767;BME280;2397;53.576;9.746;2024-02-23T00:08:28;97851.09;;;9.05;76.03
4767;BME280;2397;53.576;9.746;2024-02-23T00:10:54;97865.44;;;9.09;76.97
4767;BME280;2397;53.576;9.746;2024-02-23T00:13:21;97851.47;;;9.09;77.25
4767;BME280;2397;53.576;9.746;2024-02-23T00:15:47;97860.81;;;9.05;78.09
4767;BME280;2397;53.576;9.746;2024-02-23T00:18:14;97871.53;;;9.03;78.07
4767;BME280;2397;53.576;9.746;2024-02-23T00:20:43;97868.44;;;9.13;78.49
4767;BME280;2397;53.576;9.746;2024-02-23T00:23:10;97879.16;;;9.18;78.40
4767;BME280;2397;53.576;9.746;2024-02-23T00:25:37;97879.16;;;9.18;77.31
4767;BME280;2397;53.576;9.746;2024-02-23T00:28:04;97918.03;;;9.16;77.57
4767;BME280;2397;53.576;9.746;2024-02-23T00:30:30;97932.25;;;9.08;78.92
4767;BME280;2397;53.576;9.746;2024-02-23T00:32:57;97947.28;;;8.95;81.44
4767;BME280;2397;53.576;9.746;2024-02-23T00:35:24;97985.63;;;8.39;88.49
4767;BME280;2397;53.576;9.746;2024-02-23T00:37:50;98026.94;;;7.59;100.00
4767;BME280;2397;53.576;9.746;2024-02-23T00:40:17;98010.75;;;6.95;100.00
4767;BME280;2397;53.576;9.746;2024-02-23T00:42:44;98008.13;;;6.61;100.00
4767;BME280;2397;53.576;9.746;2024-02-23T00:45:10;98011.81;;;6.39;100.00
4767;BME280;2397;53.576;9.746;2024-02-23T00:47:37;98010.31;;;6.30;100.00
4767;BME280;2397;53.576;9.746;2024-02-23T00:50:05;98015.75;;;6.28;100.00
4767;BME280;2397;53.576;9.746;2024-02-23T00:52:31;98047.34;;;6.27;100.00
4767;BME280;2397;53.576;9.746;2024-02-23T00:54:59;98043.25;;;6.18;100.00
4767;BME280;2397;53.576;9.746;2024-02-23T00:57:25;98067.69;;;6.25;100.00
4767;BME280;2397;53.576;9.746;2024-02-23T00:59:57;98067.75;;;6.31;100.00
4767;BME280;2397;53.576;9.746;2024-02-23T01:02:23;98081.16;;;6.43;100.00
4767;BME280;2397;53.576;9.746;2024-02-23T01:04:50;98102.34;;;6.48;100.00
4767;BME280;2397;53.576;9.746;2024-02-23T01:07:17;98098.31;;;6.45;100.00
4767;BME280;2397;53.576;9.746;2024-02-23T01:09:43;98115.81;;;6.45;100.00
4767;BME280;2397;53.576;9.746;2024-02-23T01:12:10;98116.59;;;6.39;100.00
4767;BME280;2397;53.576;9.746;2024-02-23T01:14:37;98123.56;;;6.32;100.00
4767;BME280;2397;53.576;9.746;2024-02-23T01:17:03;98135.66;;;6.33;100.00
4767;BME280;2397;53.576;9.746;2024-02-23T01:19:30;98131.25;;;6.33;100.00
4767;BME280;2397;53.576;9.746;2024-02-23T01:21:57;98148.75;;;6.33;100.00
4767;BME280;2397;53.576;9.746;2024-02-23T01:24:27;98162.75;;;6.40;100.00
4767;BME280;2397;53.576;9.746;2024-02-23T01:26:55;98162.44;;;6.49;100.00
4767;BME280;2397;53.576;9.746;2024-02-23T01:29:22;98174.97;;;6.54;100.00
4767;BME280;2397;53.576;9.746;2024-02-23T01:31:50;98179.91;;;6.63;100.00
4767;BME280;2397;53.576;9.746;2024-02-23T01:34:17;98179.03;;;6.56;100.00
4767;BME280;2397;53.576;9.746;2024-02-23T01:36:44;98180.25;;;6.60;100.00
4767;BME280;2397;53.576;9.746;2024-02-23T01:39:10;98198.78;;;6.59;100.00
4767;BME280;2397;53.576;9.746;2024-02-23T01:41:37;98203.78;;;6.54;100.00
4767;BME280;2397;53.576;9.746;2024-02-23T01:44:04;98211.28;;;6.57;100.00
4767;BME280;2397;53.576;9.746;2024-02-23T01:46:31;98220.56;;;6.59;100.00
4767;BME280;2397;53.576;9.746;2024-02-23T01:48:58;98219.69;;;6.52;100.00
4767;BME280;2397;53.576;9.746;2024-02-23T01:51:25;98239.09;;;6.58;100.00
4767;BME280;2397;53.576;9.746;2024-02-23T01:53:53;98267.47;;;6.54;99.36
4767;BME280;2397;53.576;9.746;2024-02-23T01:56:20;98284.13;;;6.47;100.00
4767;BME280;2397;53.576;9.746;2024-02-23T01:58:47;98280.88;;;6.45;100.00
4767;BME280;2397;53.576;9.746;2024-02-23T02:01:15;98291.63;;;6.50;100.00
4767;BME280;2397;53.576;9.746;2024-02-23T02:03:42;98321.88;;;6.52;100.00
4767;BME280;2397;53.576;9.746;2024-02-23T02:06:09;98325.94;;;6.55;98.80
4767;BME280;2397;53.576;9.746;2024-02-23T02:08:37;98327.56;;;6.56;97.99
4767;BME280;2397;53.576;9.746;2024-02-23T02:11:04;98355.78;;;6.54;97.57
4767;BME280;2397;53.576;9.746;2024-02-23T02:13:31;98375.66;;;6.48;98.27
4767;BME280;2397;53.576;9.746;2024-02-23T02:16:00;98367.97;;;6.32;98.99
4767;BME280;2397;53.576;9.746;2024-02-23T02:18:27;98379.63;;;6.15;100.00
4767;BME280;2397;53.576;9.746;2024-02-23T02:20:55;98383.63;;;6.11;100.00
4767;BME280;2397;53.576;9.746;2024-02-23T02:23:23;98401.13;;;6.11;100.00
4767;BME280;2397;53.576;9.746;2024-02-23T02:25:58;98408.97;;;6.11;100.00
4767;BME280;2397;53.576;9.746;2024-02-23T02:28:25;98424.78;;;6.03;100.00
4767;BME280;2397;53.576;9.746;2024-02-23T02:30:52;98435.59;;;6.00;100.00
4767;BME280;2397;53.576;9.746;2024-02-23T02:33:22;98445.06;;;6.01;100.00
4767;BME280;2397;53.576;9.746;2024-02-23T02:35:49;98458.59;;;5.90;100.00
4767;BME280;2397;53.576;9.746;2024-02-23T02:38:19;98474.69;;;5.79;100.00
4767;BME280;2397;53.576;9.746;2024-02-23T02:40:46;98470.22;;;5.65;100.00
4767;BME280;2397;53.576;9.746;2024-02-23T02:43:13;98472.44;;;5.53;100.00
4767;BME280;2397;53.576;9.746;2024-02-23T02:45:39;98483.13;;;5.44;100.00
4767;BME280;2397;53.576;9.746;2024-02-23T02:48:07;98484.75;;;5.45;100.00
4767;BME280;2397;53.576;9.746;2024-02-23T02:50:33;98488.00;;;5.47;100.00
4767;BME280;2397;53.576;9.746;2024-02-23T02:53:00;98495.97;;;5.53;100.00
4767;BME280;2397;53.576;9.746;2024-02-23T02:55:27;98487.28;;;5.53;100.00
4767;BME280;2397;53.576;9.746;2024-02-23T02:57:53;98493.94;;;5.63;100.00
4767;BME280;2397;53.576;9.746;2024-02-23T03:00:20;98491.50;;;5.62;100.00
4767;BME280;2397;53.576;9.746;2024-02-23T03:02:46;98511.16;;;5.58;100.00
4767;BME280;2397;53.576;9.746;2024-02-23T03:05:13;98518.34;;;5.56;100.00
4767;BME280;2397;53.576;9.746;2024-02-23T03:07:40;98519.97;;;5.57;100.00
4767;BME280;2397;53.576;9.746;2024-02-23T03:10:07;98534.06;;;5.56;100.00
4767;BME280;2397;53.576;9.746;2024-02-23T03:12:33;98523.13;;;5.52;100.00
4767;BME280;2397;53.576;9.746;2024-02-23T03:15:00;98531.25;;;5.57;100.00
4767;BME280;2397;53.576;9.746;2024-02-23T03:17:29;98538.28;;;5.57;100.00
4767;BME280;2397;53.576;9.746;2024-02-23T03:19:56;98553.81;;;5.58;100.00
4767;BME280;2397;53.576;9.746;2024-02-23T03:22:22;98550.06;;;5.61;100.00
4767;BME280;2397;53.576;9.746;2024-02-23T03:24:49;98555.63;;;5.58;100.00
4767;BME280;2397;53.576;9.746;2024-02-23T03:27:16;98591.66;;;5.48;100.00
4767;BME280;2397;53.576;9.746;2024-02-23T03:29:42;98565.53;;;5.40;100.00
4767;BME280;2397;53.576;9.746;2024-02-23T03:32:09;98566.91;;;5.28;100.00
4767;BME280;2397;53.576;9.746;2024-02-23T03:34:36;98575.13;;;5.17;100.00
4767;BME280;2397;53.576;9.746;2024-02-23T03:37:03;98582.66;;;5.12;100.00
4767;BME280;2397;53.576;9.746;2024-02-23T03:39:30;98588.22;;;5.09;100.00
4767;BME280;2397;53.576;9.746;2024-02-23T03:41:58;98606.19;;;5.04;100.00
4767;BME280;2397;53.576;9.746;2024-02-23T03:44:25;98601.97;;;5.03;100.00
4767;BME280;2397;53.576;9.746;2024-02-23T03:46:51;98599.97;;;5.05;100.00
4767;BME280;2397;53.576;9.746;2024-02-23T03:49:18;98619.28;;;5.04;100.00
4767;BME280;2397;53.576;9.746;2024-02-23T03:51:44;98617.00;;;5.01;100.00
4767;BME280;2397;53.576;9.746;2024-02-23T03:54:11;98620.59;;;5.00;100.00
4767;BME280;2397;53.576;9.746;2024-02-23T03:56:41;98626.47;;;4.94;100.00
4767;BME280;2397;53.576;9.746;2024-02-23T03:59:09;98639.91;;;4.91;100.00
4767;BME280;2397;53.576;9.746;2024-02-23T04:01:38;98631.38;;;4.97;100.00
4767;BME280;2397;53.576;9.746;2024-02-23T04:04:05;98650.66;;;4.96;100.00
4767;BME280;2397;53.576;9.746;2024-02-23T04:06:33;98659.13;;;4.98;100.00
4767;BME280;2397;53.576;9.746;2024-02-23T04:09:00;98656.19;;;5.01;100.00
4767;BME280;2397;53.576;9.746;2024-02-23T04:11:27;98665.34;;;5.05;100.00
4767;BME280;2397;53.576;9.746;2024-02-23T04:13:53;98669.59;;;5.06;100.00
4767;BME280;2397;53.576;9.746;2024-02-23T04:16:24;98677.91;;;5.17;100.00
4767;BME280;2397;53.576;9.746;2024-02-23T04:18:51;98676.44;;;5.15;100.00
4767;BME280;2397;53.576;9.746;2024-02-23T04:21:18;98698.16;;;5.23;100.00
4767;BME280;2397;53.576;9.746;2024-02-23T04:23:45;98687.88;;;5.22;100.00
4767;BME280;2397;53.576;9.746;2024-02-23T04:26:12;98709.94;;;5.19;100.00
4767;BME280;2397;53.576;9.746;2024-02-23T04:28:40;98701.56;;;5.24;100.00
4767;BME280;2397;53.576;9.746;2024-02-23T04:31:09;98698.78;;;5.25;100.00
4767;BME280;2397;53.576;9.746;2024-02-23T04:33:37;98695.69;;;5.30;100.00
4767;BME280;2397;53.576;9.746;2024-02-23T04:36:04;98703.69;;;5.28;100.00
4767;BME280;2397;53.576;9.746;2024-02-23T04:38:32;98697.31;;;5.31;100.00
4767;BME280;2397;53.576;9.746;2024-02-23T04:41:02;98698.59;;;5.35;100.00
4767;BME280;2397;53.576;9.746;2024-02-23T04:43:29;98699.09;;;5.38;100.00
4767;BME280;2397;53.576;9.746;2024-02-23T04:45:56;98710.88;;;5.42;100.00
4767;BME280;2397;53.576;9.746;2024-02-23T04:48:22;98709.72;;;5.45;100.00
4767;BME280;2397;53.576;9.746;2024-02-23T04:50:49;98708.22;;;5.50;100.00
4767;BME280;2397;53.576;9.746;2024-02-23T04:53:15;98711.53;;;5.44;100.00
4767;BME280;2397;53.576;9.746;2024-02-23T04:55:42;98711.34;;;5.46;100.00
4767;BME280;2397;53.576;9.746;2024-02-23T04:58:08;98716.41;;;5.39;100.00
4767;BME280;2397;53.576;9.746;2024-02-23T05:00:35;98729.00;;;5.44;100.00
4767;BME280;2397;53.576;9.746;2024-02-23T05:03:02;98728.50;;;5.40;100.00
4767;BME280;2397;53.576;9.746;2024-02-23T05:05:30;98734.91;;;5.38;100.00
4767;BME280;2397;53.576;9.746;2024-02-23T05:07:58;98734.91;;;5.38;100.00
4767;BME280;2397;53.576;9.746;2024-02-23T05:10:26;98737.22;;;5.33;100.00
4767;BME280;2397;53.576;9.746;2024-02-23T05:12:53;98751.28;;;5.32;100.00
4767;BME280;2397;53.576;9.746;2024-02-23T05:15:19;98757.81;;;5.20;100.00
4767;BME280;2397;53.576;9.746;2024-02-23T05:17:46;98751.94;;;5.10;100.00
4767;BME280;2397;53.576;9.746;2024-02-23T05:20:13;98765.34;;;5.07;100.00
4767;BME280;2397;53.576;9.746;2024-02-23T05:22:41;98775.81;;;4.99;100.00
4767;BME280;2397;53.576;9.746;2024-02-23T05:25:08;98770.91;;;5.04;100.00
4767;BME280;2397;53.576;9.746;2024-02-23T05:27:35;98794.59;;;5.10;100.00
4767;BME280;2397;53.576;9.746;2024-02-23T05:30:01;98802.94;;;5.22;100.00
4767;BME280;2397;53.576;9.746;2024-02-23T05:32:28;98796.69;;;5.31;100.00
4767;BME280;2397;53.576;9.746;2024-02-23T05:34:55;98798.00;;;5.35;100.00
4767;BME280;2397;53.576;9.746;2024-02-23T05:37:23;98793.91;;;5.32;100.00
4767;BME280;2397;53.576;9.746;2024-02-23T05:39:50;98813.06;;;5.33;100.00
4767;BME280;2397;53.576;9.746;2024-02-23T05:42:17;98817.28;;;5.34;100.00
4767;BME280;2397;53.576;9.746;2024-02-23T05:44:43;98806.34;;;5.38;100.00
4767;BME280;2397;53.576;9.746;2024-02-23T05:47:11;98811.75;;;5.37;100.00
4767;BME280;2397;53.576;9.746;2024-02-23T05:49:40;98810.44;;;5.41;100.00
4767;BME280;2397;53.576;9.746;2024-02-23T05:52:07;98815.03;;;5.39;99.81
4767;BME280;2397;53.576;9.746;2024-02-23T05:54:35;98821.06;;;5.39;100.00
4767;BME280;2397;53.576;9.746;2024-02-23T05:57:02;98835.94;;;5.31;99.47
4767;BME280;2397;53.576;9.746;2024-02-23T05:59:29;98837.09;;;5.20;99.43
4767;BME280;2397;53.576;9.746;2024-02-23T06:01:55;98830.06;;;5.13;98.52
4767;BME280;2397;53.576;9.746;2024-02-23T06:04:26;98840.84;;;5.10;98.70
4767;BME280;2397;53.576;9.746;2024-02-23T06:06:53;98846.06;;;5.02;100.00
4767;BME280;2397;53.576;9.746;2024-02-23T06:09:20;98849.66;;;5.01;98.96
4767;BME280;2397;53.576;9.746;2024-02-23T06:11:47;98844.94;;;4.96;99.53
4767;BME280;2397;53.576;9.746;2024-02-23T06:14:14;98862.56;;;4.94;99.69
4767;BME280;2397;53.576;9.746;2024-02-23T06:16:40;98862.88;;;4.91;99.39
4767;BME280;2397;53.576;9.746;2024-02-23T06:19:07;98855.19;;;4.90;99.91
4767;BME280;2397;53.576;9.746;2024-02-23T06:21:34;98859.31;;;5.00;98.94
4767;BME280;2397;53.576;9.746;2024-02-23T06:24:01;98867.78;;;5.02;97.88
4767;BME280;2397;53.576;9.746;2024-02-23T06:26:28;98873.84;;;5.11;97.95
4767;BME280;2397;53.576;9.746;2024-02-23T06:28:55;98886.44;;;5.07;97.78
4767;BME280;2397;53.576;9.746;2024-02-23T06:31:21;98891.47;;;5.09;97.63
4767;BME280;2397;53.576;9.746;2024-02-23T06:33:48;98890.53;;;5.10;97.59
4767;BME280;2397;53.576;9.746;2024-02-23T06:36:16;98888.72;;;5.10;98.32
4767;BME280;2397;53.576;9.746;2024-02-23T06:38:43;98900.63;;;5.05;98.18
4767;BME280;2397;53.576;9.746;2024-02-23T06:41:11;98909.28;;;4.97;98.47
4767;BME280;2397;53.576;9.746;2024-02-23T06:43:37;98901.59;;;4.96;99.33
4767;BME280;2397;53.576;9.746;2024-02-23T06:46:08;98910.28;;;4.96;98.91
4767;BME280;2397;53.576;9.746;2024-02-23T06:48:35;98915.50;;;4.96;99.24
4767;BME280;2397;53.576;9.746;2024-02-23T06:51:06;98924.31;;;4.95;99.92
4767;BME280;2397;53.576;9.746;2024-02-23T06:53:36;98930.03;;;4.99;98.94
4767;BME280;2397;53.576;9.746;2024-02-23T06:56:06;98937.72;;;5.00;99.57
4767;BME280;2397;53.576;9.746;2024-02-23T06:58:32;98941.16;;;5.01;99.34
4767;BME280;2397;53.576;9.746;2024-02-23T07:00:59;98944.59;;;5.09;98.84
4767;BME280;2397;53.576;9.746;2024-02-23T07:03:26;98954.59;;;5.14;98.89
4767;BME280;2397;53.576;9.746;2024-02-23T07:05:53;98967.16;;;5.10;99.05
4767;BME280;2397;53.576;9.746;2024-02-23T07:08:20;98960.91;;;5.03;100.00
4767;BME280;2397;53.576;9.746;2024-02-23T07:10:46;98964.66;;;5.01;100.00
4767;BME280;2397;53.576;9.746;2024-02-23T07:13:13;98956.84;;;5.01;100.00
4767;BME280;2397;53.576;9.746;2024-02-23T07:15:40;98985.25;;;4.96;100.00
4767;BME280;2397;53.576;9.746;2024-02-23T07:18:06;98974.78;;;4.96;100.00
4767;BME280;2397;53.576;9.746;2024-02-23T07:20:36;98976.09;;;4.92;100.00
4767;BME280;2397;53.576;9.746;2024-02-23T07:23:03;98976.28;;;4.98;100.00
4767;BME280;2397;53.576;9.746;2024-02-23T07:25:29;98986.88;;;4.97;100.00
4767;BME280;2397;53.576;9.746;2024-02-23T07:27:56;98991.63;;;4.93;100.00
4767;BME280;2397;53.576;9.746;2024-02-23T07:30:22;98988.19;;;4.93;100.00
4767;BME280;2397;53.576;9.746;2024-02-23T07:32:49;98985.56;;;4.93;100.00
4767;BME280;2397;53.576;9.746;2024-02-23T07:35:19;98994.38;;;4.92;100.00
4767;BME280;2397;53.576;9.746;2024-02-23T07:37:45;98981.63;;;4.89;100.00
4767;BME280;2397;53.576;9.746;2024-02-23T07:40:12;99000.91;;;4.88;100.00
4767;BME280;2397;53.576;9.746;2024-02-23T07:42:40;99000.22;;;4.86;100.00
4767;BME280;2397;53.576;9.746;2024-02-23T07:45:07;98998.00;;;4.91;100.00
4767;BME280;2397;53.576;9.746;2024-02-23T07:47:35;99002.69;;;4.87;100.00
4767;BME280;2397;53.576;9.746;2024-02-23T07:50:02;98999.94;;;4.89;100.00
4767;BME280;2397;53.576;9.746;2024-02-23T07:52:29;98998.44;;;4.86;100.00
4767;BME280;2397;53.576;9.746;2024-02-23T07:54:55;99016.09;;;4.92;100.00
4767;BME280;2397;53.576;9.746;2024-02-23T07:57:22;99013.19;;;4.95;100.00
4767;BME280;2397;53.576;9.746;2024-02-23T07:59:48;99013.03;;;5.05;100.00
4767;BME280;2397;53.576;9.746;2024-02-23T08:02:15;99024.50;;;5.12;100.00
4767;BME280;2397;53.576;9.746;2024-02-23T08:04:42;99034.19;;;5.19;100.00
4767;BME280;2397;53.576;9.746;2024-02-23T08:07:09;99021.47;;;5.24;100.00
4767;BME280;2397;53.576;9.746;2024-02-23T08:09:35;99032.91;;;5.31;100.00
4767;BME280;2397;53.576;9.746;2024-02-23T08:12:02;99035.09;;;5.44;100.00
4767;BME280;2397;53.576;9.746;2024-02-23T08:14:29;99036.41;;;5.56;98.62
4767;BME280;2397;53.576;9.746;2024-02-23T08:16:55;99038.41;;;5.62;97.18
4767;BME280;2397;53.576;9.746;2024-02-23T08:19:22;99046.88;;;5.64;97.08
4767;BME280;2397;53.576;9.746;2024-02-23T08:21:48;99053.44;;;5.68;97.15
4767;BME280;2397;53.576;9.746;2024-02-23T08:24:15;99050.50;;;5.79;95.05
4767;BME280;2397;53.576;9.746;2024-02-23T08:26:41;99040.28;;;5.93;93.91
4767;BME280;2397;53.576;9.746;2024-02-23T08:29:09;99040.94;;;6.11;91.59
4767;BME280;2397;53.576;9.746;2024-02-23T08:31:35;99048.59;;;6.37;89.51
4767;BME280;2397;53.576;9.746;2024-02-23T08:34:07;99049.88;;;6.49;88.19
4767;BME280;2397;53.576;9.746;2024-02-23T08:36:33;99060.97;;;6.75;86.30
4767;BME280;2397;53.576;9.746;2024-02-23T08:39:00;99054.72;;;6.92;85.23
4767;BME280;2397;53.576;9.746;2024-02-23T08:41:26;99047.34;;;6.87;84.22
4767;BME280;2397;53.576;9.746;2024-02-23T08:43:53;99050.78;;;6.88;83.79
4767;BME280;2397;53.576;9.746;2024-02-23T08:46:22;99047.84;;;6.91;83.15
4767;BME280;2397;53.576;9.746;2024-02-23T08:48:49;99052.94;;;6.84;82.29
4767;BME280;2397;53.576;9.746;2024-02-23T08:51:15;99053.09;;;6.91;82.19
4767;BME280;2397;53.576;9.746;2024-02-23T08:53:42;99066.47;;;7.04;82.77
4767;BME280;2397;53.576;9.746;2024-02-23T08:56:11;99055.97;;;7.12;81.47
4767;BME280;2397;53.576;9.746;2024-02-23T08:58:38;99071.72;;;7.04;82.10
4767;BME280;2397;53.576;9.746;2024-02-23T09:01:04;99081.59;;;6.86;82.77
4767;BME280;2397;53.576;9.746;2024-02-23T09:03:31;99094.34;;;6.97;83.16
4767;BME280;2397;53.576;9.746;2024-02-23T09:05:58;99079.59;;;7.04;81.91
4767;BME280;2397;53.576;9.746;2024-02-23T09:08:25;99087.25;;;7.22;81.57
4767;BME280;2397;53.576;9.746;2024-02-23T09:10:51;99089.38;;;7.18;80.69
4767;BME280;2397;53.576;9.746;2024-02-23T09:13:18;99104.69;;;6.98;81.63
4767;BME280;2397;53.576;9.746;2024-02-23T09:15:45;99115.22;;;6.74;81.98
4767;BME280;2397;53.576;9.746;2024-02-23T09:18:11;99107.50;;;6.81;81.61
4767;BME280;2397;53.576;9.746;2024-02-23T09:20:38;99101.09;;;6.91;81.64
4767;BME280;2397;53.576;9.746;2024-02-23T09:23:05;99109.41;;;7.11;81.36
4767;BME280;2397;53.576;9.746;2024-02-23T09:25:31;99102.16;;;7.21;80.55
4767;BME280;2397;53.576;9.746;2024-02-23T09:27:58;99114.13;;;7.24;79.91
4767;BME280;2397;53.576;9.746;2024-02-23T09:30:24;99111.25;;;7.41;78.70
4767;BME280;2397;53.576;9.746;2024-02-23T09:32:51;99094.19;;;7.45;77.56
4767;BME280;2397;53.576;9.746;2024-02-23T09:35:18;99117.19;;;7.43;77.96
4767;BME280;2397;53.576;9.746;2024-02-23T09:37:44;99112.59;;;7.37;78.07
4767;BME280;2397;53.576;9.746;2024-02-23T09:40:11;99127.66;;;7.43;78.55
4767;BME280;2397;53.576;9.746;2024-02-23T09:42:38;99132.84;;;7.59;77.59
4767;BME280;2397;53.576;9.746;2024-02-23T09:45:06;99140.75;;;7.51;76.95
4767;BME280;2397;53.576;9.746;2024-02-23T09:47:35;99143.06;;;7.54;76.76
4767;BME280;2397;53.576;9.746;2024-02-23T09:50:04;99151.91;;;7.53;75.74
4767;BME280;2397;53.576;9.746;2024-02-23T09:52:31;99143.69;;;7.56;75.65
4767;BME280;2397;53.576;9.746;2024-02-23T09:54:59;99162.38;;;7.61;76.08
4767;BME280;2397;53.576;9.746;2024-02-23T09:57:26;99161.59;;;7.53;74.80
4767;BME280;2397;53.576;9.746;2024-02-23T09:59:53;99165.56;;;7.41;76.05
4767;BME280;2397;53.576;9.746;2024-02-23T10:02:20;99179.84;;;7.46;76.92
4767;BME280;2397;53.576;9.746;2024-02-23T10:04:48;99182.13;;;7.49;76.91
4767;BME280;2397;53.576;9.746;2024-02-23T10:07:16;99179.84;;;7.46;76.34
4767;BME280;2397;53.576;9.746;2024-02-23T10:09:43;99189.06;;;7.81;76.84
4767;BME280;2397;53.576;9.746;2024-02-23T10:12:09;99195.72;;;7.91;75.52
4767;BME280;2397;53.576;9.746;2024-02-23T10:14:36;99203.16;;;7.80;75.59
4767;BME280;2397;53.576;9.746;2024-02-23T10:17:03;99199.41;;;7.74;76.01
4767;BME280;2397;53.576;9.746;2024-02-23T10:19:30;99189.28;;;7.71;73.71
4767;BME280;2397;53.576;9.746;2024-02-23T10:21:57;99203.38;;;7.70;73.82
4767;BME280;2397;53.576;9.746;2024-02-23T10:24:24;99218.94;;;7.72;74.71
4767;BME280;2397;53.576;9.746;2024-02-23T10:26:52;99221.09;;;7.68;73.88
4767;BME280;2397;53.576;9.746;2024-02-23T10:29:18;99208.06;;;7.83;73.35
4767;BME280;2397;53.576;9.746;2024-02-23T10:31:48;99227.72;;;7.95;73.36
4767;BME280;2397;53.576;9.746;2024-02-23T10:34:18;99211.78;;;7.96;72.02
4767;BME280;2397;53.576;9.746;2024-02-23T10:36:46;99204.28;;;7.93;70.89
4767;BME280;2397;53.576;9.746;2024-02-23T10:39:18;99209.16;;;7.96;71.36
4767;BME280;2397;53.576;9.746;2024-02-23T10:41:56;99223.28;;;7.95;71.96
4767;BME280;2397;53.576;9.746;2024-02-23T10:44:23;99245.59;;;7.99;73.45
4767;BME280;2397;53.576;9.746;2024-02-23T10:46:52;99243.34;;;7.88;72.94
4767;BME280;2397;53.576;9.746;2024-02-23T10:49:23;99256.66;;;7.87;73.67
4767;BME280;2397;53.576;9.746;2024-02-23T10:51:53;99255.00;;;7.86;75.25
4767;BME280;2397;53.576;9.746;2024-02-23T10:54:20;99270.31;;;7.74;74.79
4767;BME280;2397;53.576;9.746;2024-02-23T10:56:50;99254.25;;;7.69;74.47
4767;BME280;2397;53.576;9.746;2024-02-23T10:59:18;99259.34;;;7.63;74.27
4767;BME280;2397;53.576;9.746;2024-02-23T11:01:49;99267.50;;;7.76;74.09
4767;BME280;2397;53.576;9.746;2024-02-23T11:04:17;99265.81;;;7.99;74.73
4767;BME280;2397;53.576;9.746;2024-02-23T11:06:55;99258.56;;;8.01;73.28
4767;BME280;2397;53.576;9.746;2024-02-23T11:09:25;99258.72;;;7.99;72.01
4767;BME280;2397;53.576;9.746;2024-02-23T11:11:53;99256.81;;;7.93;72.67
4767;BME280;2397;53.576;9.746;2024-02-23T11:14:35;99241.97;;;8.00;71.33
4767;BME280;2397;53.576;9.746;2024-02-23T11:17:03;99248.63;;;7.80;72.12
4767;BME280;2397;53.576;9.746;2024-02-23T11:19:38;99260.94;;;7.80;73.44
4767;BME280;2397;53.576;9.746;2024-02-23T11:22:09;99238.59;;;7.84;73.34
4767;BME280;2397;53.576;9.746;2024-02-23T11:24:49;99256.69;;;8.17;72.94
4767;BME280;2397;53.576;9.746;2024-02-23T11:27:20;99245.25;;;8.02;71.34
4767;BME280;2397;53.576;9.746;2024-02-23T11:29:47;99247.34;;;8.15;71.74
4767;BME280;2397;53.576;9.746;2024-02-23T11:32:16;99245.88;;;8.12;70.68
4767;BME280;2397;53.576;9.746;2024-02-23T11:34:57;99246.34;;;8.16;71.42
4767;BME280;2397;53.576;9.746;2024-02-23T11:37:23;99246.19;;;8.17;71.70
4767;BME280;2397;53.576;9.746;2024-02-23T11:39:50;99231.22;;;8.26;69.93
4767;BME280;2397;53.576;9.746;2024-02-23T11:42:17;99231.59;;;8.45;70.51
4767;BME280;2397;53.576;9.746;2024-02-23T11:44:44;99207.75;;;8.69;68.28
4767;BME280;2397;53.576;9.746;2024-02-23T11:47:10;99206.03;;;8.62;66.73
4767;BME280;2397;53.576;9.746;2024-02-23T11:49:37;99207.00;;;8.38;67.00
4767;BME280;2397;53.576;9.746;2024-02-23T11:52:04;99211.72;;;8.65;67.89
4767;BME280;2397;53.576;9.746;2024-02-23T11:54:30;99212.41;;;8.59;67.32
4767;BME280;2397;53.576;9.746;2024-02-23T11:56:57;99232.81;;;8.35;69.32
4767;BME280;2397;53.576;9.746;2024-02-23T11:59:24;99225.47;;;8.22;68.67
4767;BME280;2397;53.576;9.746;2024-02-23T12:01:51;99227.13;;;8.23;70.21
4767;BME280;2397;53.576;9.746;2024-02-23T12:04:17;99220.91;;;8.47;68.63
4767;BME280;2397;53.576;9.746;2024-02-23T12:06:44;99211.09;;;8.63;67.19
4767;BME280;2397;53.576;9.746;2024-02-23T12:09:12;99187.25;;;8.42;65.00
4767;BME280;2397;53.576;9.746;2024-02-23T12:11:39;99199.75;;;8.40;66.30
4767;BME280;2397;53.576;9.746;2024-02-23T12:14:07;99193.38;;;8.35;65.03
4767;BME280;2397;53.576;9.746;2024-02-23T12:16:36;99210.03;;;8.19;66.42
4767;BME280;2397;53.576;9.746;2024-02-23T12:19:03;99190.34;;;8.23;65.25
4767;BME280;2397;53.576;9.746;2024-02-23T12:21:29;99193.13;;;8.22;66.11
4767;BME280;2397;53.576;9.746;2024-02-23T12:23:56;99201.69;;;8.46;64.86
4767;BME280;2397;53.576;9.746;2024-02-23T12:26:22;99190.34;;;8.68;64.14
4767;BME280;2397;53.576;9.746;2024-02-23T12:28:50;99184.50;;;8.81;63.04
4767;BME280;2397;53.576;9.746;2024-02-23T12:31:23;99167.72;;;8.82;62.74
4767;BME280;2397;53.576;9.746;2024-02-23T12:33:50;99166.31;;;9.08;61.48
4767;BME280;2397;53.576;9.746;2024-02-23T12:36:17;99167.28;;;9.07;62.21
4767;BME280;2397;53.576;9.746;2024-02-23T12:38:44;99160.56;;;9.05;61.54
4767;BME280;2397;53.576;9.746;2024-02-23T12:41:11;99168.59;;;9.11;61.88
4767;BME280;2397;53.576;9.746;2024-02-23T12:43:38;99165.31;;;9.09;62.02
4767;BME280;2397;53.576;9.746;2024-02-23T12:46:07;99180.59;;;8.91;62.60
4767;BME280;2397;53.576;9.746;2024-02-23T12:48:35;99179.69;;;8.84;63.30
4767;BME280;2397;53.576;9.746;2024-02-23T12:51:02;99176.78;;;8.79;63.11
4767;BME280;2397;53.576;9.746;2024-02-23T12:53:36;99189.03;;;8.87;63.23
4767;BME280;2397;53.576;9.746;2024-02-23T12:56:12;99190.09;;;8.78;62.57
4767;BME280;2397;53.576;9.746;2024-02-23T12:58:41;99195.72;;;8.75;64.29
4767;BME280;2397;53.576;9.746;2024-02-23T13:01:10;99208.44;;;8.86;63.41
4767;BME280;2397;53.576;9.746;2024-02-23T13:03:38;99194.31;;;8.64;62.83
4767;BME280;2397;53.576;9.746;2024-02-23T13:06:05;99211.50;;;8.75;63.20
4767;BME280;2397;53.576;9.746;2024-02-23T13:08:32;99209.88;;;8.74;63.02
4767;BME280;2397;53.576;9.746;2024-02-23T13:10:59;99186.59;;;8.63;62.12
4767;BME280;2397;53.576;9.746;2024-02-23T13:13:26;99197.53;;;8.52;63.31
4767;BME280;2397;53.576;9.746;2024-02-23T13:15:54;99201.91;;;8.59;63.62
4767;BME280;2397;53.576;9.746;2024-02-23T13:18:20;99207.22;;;8.51;63.54
4767;BME280;2397;53.576;9.746;2024-02-23T13:20:48;99213.47;;;8.50;63.93
4767;BME280;2397;53.576;9.746;2024-02-23T13:23:15;99211.72;;;8.43;63.82
4767;BME280;2397;53.576;9.746;2024-02-23T13:25:43;99211.25;;;8.39;63.82
4767;BME280;2397;53.576;9.746;2024-02-23T13:28:10;99224.56;;;8.38;64.51